Time;durP1;ratioP1;P1;durP2;ratioP2;P2;SDS_P1;SDS_P2;PMS_P1;PMS_P2;Temp;Humidity;BMP_temperature;BMP_pressure;BME280_temperature;BME280_humidity;BME280_pressure;Samples;Min_cycle;Max_cycle;Signal;HPM_P1;HPM_P2
2023/09/17 00:03:26;;;;;;;12.68;10.35;;;;;;;15.21;100.00;100673.25;10411165;28;20144;-81
2023/09/17 00:08:27;;;;;;;15.13;10.80;;;;;;;15.25;100.00;100685.22;10411765;28;20054;-81
2023/09/17 00:13:29;;;;;;;11.10;9.63;;;;;;;15.11;100.00;100672.72;10412743;28;20149;-79
2023/09/17 00:18:30;;;;;;;10.35;8.40;;;;;;;14.51;100.00;100589.97;10411260;28;20049;-79
2023/09/17 00:23:31;;;;;;;9.35;7.95;;;;;;;14.91;100.00;100692.06;10411450;28;20405;-79
2023/09/17 00:28:31;;;;;;;8.02;7.20;;;;;;;14.30;100.00;100619.28;10411880;28;20041;-80
2023/09/17 00:33:32;;;;;;;9.30;7.25;;;;;;;14.37;100.00;100661.09;10411688;28;20033;-79
2023/09/17 00:38:33;;;;;;;8.98;7.18;;;;;;;14.54;100.00;100696.53;10409745;28;20079;-79
2023/09/17 00:43:34;;;;;;;12.20;7.00;;;;;;;14.19;100.00;100659.81;10411226;28;20042;-79
2023/09/17 00:48:35;;;;;;;7.72;6.50;;;;;;;14.12;100.00;100681.94;10411484;28;20030;-80
2023/09/17 00:53:36;;;;;;;7.45;6.68;;;;;;;14.26;100.00;100716.84;10411018;28;20045;-79
2023/09/17 00:58:37;;;;;;;7.43;6.00;;;;;;;13.86;100.00;100660.16;10409724;28;20061;-80
2023/09/17 01:03:38;;;;;;;7.25;6.00;;;;;;;13.92;100.00;100678.13;10410534;28;20118;-79
2023/09/17 01:08:40;;;;;;;6.75;5.40;;;;;;;13.73;100.00;100651.94;10410475;28;20033;-79
2023/09/17 01:13:42;;;;;;;6.63;5.25;;;;;;;13.81;100.00;100678.56;10409757;28;20045;-79
2023/09/17 01:18:43;;;;;;;5.25;4.57;;;;;;;14.08;100.00;100731.38;10410886;28;20132;-79
2023/09/17 01:23:54;;;;;;;8.95;5.53;;;;;;;13.87;100.00;100692.00;10410355;28;20092;-79
2023/09/17 01:28:55;;;;;;;5.40;4.53;;;;;;;13.77;100.00;100685.28;10408587;28;20041;-79
2023/09/17 01:33:56;;;;;;;6.40;4.43;;;;;;;13.87;100.00;100696.53;10409071;28;20408;-79
2023/09/17 01:39:06;;;;;;;4.50;3.97;;;;;;;14.12;100.00;100730.03;10409046;28;20140;-79
2023/09/17 01:44:08;;;;;;;6.15;4.35;;;;;;;14.15;100.00;100732.34;10408158;28;20044;-78
2023/09/17 01:49:11;;;;;;;4.80;3.83;;;;;;;14.10;100.00;100736.56;10408825;28;20037;-78
2023/09/17 01:54:13;;;;;;;6.63;4.07;;;;;;;13.78;100.00;100677.06;10408683;28;20049;-79
2023/09/17 01:59:14;;;;;;;8.50;4.78;;;;;;;13.98;100.00;100689.94;10408175;28;20065;-78
2023/09/17 02:04:15;;;;;;;4.78;4.22;;;;;;;14.14;100.00;100727.97;10408282;28;20044;-78
2023/09/17 02:09:16;;;;;;;26.38;4.28;;;;;;;14.10;100.00;100715.19;10408026;28;20052;-78
2023/09/17 02:14:16;;;;;;;5.45;4.90;;;;;;;13.99;100.00;100700.41;10408220;28;20056;-78
2023/09/17 02:19:17;;;;;;;7.20;5.07;;;;;;;14.01;100.00;100705.59;10407036;28;20501;-78
2023/09/17 02:24:19;;;;;;;9.05;5.53;;;;;;;14.14;100.00;100721.81;10407525;28;20545;-78
2023/09/17 02:29:20;;;;;;;5.78;4.50;;;;;;;13.93;100.00;100698.47;10408042;28;20048;-78
2023/09/17 02:34:21;;;;;;;10.98;5.20;;;;;;;14.24;100.00;100732.22;10408198;28;20373;-78
2023/09/17 02:39:22;;;;;;;7.20;4.82;;;;;;;14.07;100.00;100711.03;10406014;28;20048;-78
2023/09/17 02:44:22;;;;;;;13.93;4.75;;;;;;;14.16;100.00;100725.97;10407468;28;20042;-78
2023/09/17 02:49:23;;;;;;;11.30;4.38;;;;;;;14.24;100.00;100732.22;10407501;28;20037;-79
2023/09/17 02:54:24;;;;;;;9.55;4.10;;;;;;;13.88;100.00;100676.81;10407410;28;20049;-79
2023/09/17 02:59:25;;;;;;;7.05;4.22;;;;;;;14.02;100.00;100702.72;10407594;28;20093;-80
2023/09/17 03:04:28;;;;;;;6.25;3.92;;;;;;;14.30;100.00;100756.41;10406392;28;20069;-78
2023/09/17 03:09:29;;;;;;;5.57;3.97;;;;;;;13.98;100.00;100690.75;10407178;28;20041;-78
2023/09/17 03:14:34;;;;;;;8.88;3.45;;;;;;;14.39;100.00;100751.81;10406245;28;20052;-78
2023/09/17 03:19:35;;;;;;;4.53;3.17;;;;;;;14.14;100.00;100703.94;10406894;28;20045;-78
2023/09/17 03:24:37;;;;;;;5.47;3.53;;;;;;;14.38;100.00;100747.47;10406661;28;20049;-78
2023/09/17 03:29:37;;;;;;;7.00;3.45;;;;;;;14.49;100.00;100768.41;10405553;28;20520;-79
2023/09/17 03:34:38;;;;;;;6.43;3.28;;;;;;;14.12;100.00;100719.34;10405904;28;20048;-79
2023/09/17 03:39:42;;;;;;;4.95;2.90;;;;;;;14.34;100.00;100765.72;10406149;28;20045;-78
2023/09/17 03:44:43;;;;;;;5.65;3.33;;;;;;;14.38;100.00;100766.16;10404926;28;20041;-79
2023/09/17 03:49:44;;;;;;;7.13;3.05;;;;;;;14.01;100.00;100703.75;10406562;28;20038;-77
2023/09/17 03:54:45;;;;;;;9.98;3.13;;;;;;;14.51;100.00;100787.78;10411867;28;20053;-78
2023/09/17 03:59:47;;;;;;;4.00;2.67;;;;;;;14.04;100.00;100708.72;10411821;28;20061;-78
2023/09/17 04:04:48;;;;;;;9.85;3.33;;;;;;;14.38;100.00;100750.94;10412517;28;20131;-78
2023/09/17 04:09:49;;;;;;;7.53;2.97;;;;;;;14.61;100.00;100800.91;10412297;28;20135;-78
2023/09/17 04:14:49;;;;;;;9.45;2.30;;;;;;;14.27;100.00;100759.44;10411628;28;20038;-78
2023/09/17 04:19:52;;;;;;;5.90;2.60;;;;;;;14.52;100.00;100808.16;10410679;28;20037;-78
2023/09/17 04:24:53;;;;;;;3.40;2.25;;;;;;;14.38;100.00;100793.72;10412131;28;20234;-78
2023/09/17 04:29:54;;;;;;;8.80;2.60;;;;;;;14.48;100.00;100806.84;10411214;28;20568;-78
2023/09/17 04:34:54;;;;;;;8.48;2.78;;;;;;;14.41;100.00;100819.25;10411026;28;20508;-79
2023/09/17 04:39:55;;;;;;;4.65;2.70;;;;;;;13.87;100.00;100760.63;10411418;28;20060;-80
2023/09/17 04:44:56;;;;;;;10.55;3.25;;;;;;;14.15;100.00;100809.81;10410334;28;20496;-79
2023/09/17 04:49:57;;;;;;;4.22;3.10;;;;;;;14.05;100.00;100793.19;10411795;28;20524;-78
2023/09/17 04:54:57;;;;;;;5.95;4.38;;;;;;;14.11;100.00;100796.97;10410426;28;20037;-79
2023/09/17 05:00:09;;;;;;;7.72;4.43;;;;;;;14.01;100.00;100804.44;10410342;28;20075;-78
2023/09/17 05:05:11;;;;;;;5.85;4.18;;;;;;;14.30;100.00;100836.56;10410121;28;20052;-78
2023/09/17 05:10:11;;;;;;;25.88;5.07;;;;;;;14.20;100.00;100829.81;10410653;28;20075;-79
2023/09/17 05:15:12;;;;;;;12.57;4.90;;;;;;;13.57;100.00;100741.00;10410347;28;20069;-79
2023/09/17 05:20:13;;;;;;;11.07;5.25;;;;;;;14.12;100.00;100839.56;10409327;28;20037;-76
2023/09/17 05:25:13;;;;;;;9.18;5.68;;;;;;;14.08;100.00;100854.25;10410201;28;20056;-81
2023/09/17 05:30:14;;;;;;;12.73;5.85;;;;;;;13.52;100.00;100765.56;10409785;28;20041;-78
2023/09/17 05:35:16;;;;;;;20.70;6.75;;;;;;;14.10;100.00;100854.09;10410305;28;20132;-78
2023/09/17 05:40:17;;;;;;;11.25;6.45;;;;;;;14.08;100.00;100837.41;10408863;28;20041;-77
2023/09/17 05:45:18;;;;;;;8.13;6.25;;;;;;;13.85;100.00;100789.34;10409538;28;20045;-78
2023/09/17 05:50:19;;;;;;;8.05;5.95;;;;;;;14.31;100.00;100866.81;10408812;28;20036;-78
2023/09/17 05:55:19;;;;;;;10.02;5.95;;;;;;;14.02;100.00;100801.56;10409022;28;20447;-77
2023/09/17 06:00:22;;;;;;;11.40;5.57;;;;;;;14.46;100.00;100872.19;10409455;28;20061;-78
2023/09/17 06:05:22;;;;;;;10.38;6.25;;;;;;;14.57;100.00;100885.16;10408214;28;20041;-77
2023/09/17 06:10:23;;;;;;;8.48;5.95;;;;;;;14.76;100.00;100878.47;10408599;28;20042;-77
2023/09/17 06:15:25;;;;;;;12.73;6.10;;;;;;;14.52;100.00;100858.97;10407011;28;20071;-78
2023/09/17 06:20:27;;;;;;;11.43;5.75;;;;;;;14.86;100.00;100897.72;10407613;28;20603;-79
2023/09/17 06:25:27;;;;;;;6.57;5.88;;;;;;;14.81;100.00;100895.63;10401065;28;20128;-73
2023/09/17 06:30:28;;;;;;;6.63;5.30;;;;;;;14.77;100.00;100899.66;10408617;28;20627;-80
2023/09/17 06:35:29;;;;;;;10.80;5.00;;;;;;;14.64;100.00;100855.84;10407940;28;20037;-81
2023/09/17 06:40:30;;;;;;;10.07;5.07;;;;;;;14.93;100.00;100887.97;10406948;28;20049;-83
2023/09/17 06:45:30;;;;;;;7.93;4.80;;;;;;;14.92;100.00;100867.56;10406947;28;20068;-79
2023/09/17 06:50:31;;;;;;;8.27;5.22;;;;;;;15.06;100.00;100877.47;10407461;28;20037;-82
2023/09/17 06:55:34;;;;;;;9.70;5.07;;;;;;;15.27;100.00;100894.63;10407133;28;20096;-82
2023/09/17 07:00:35;;;;;;;7.00;4.80;;;;;;;15.34;100.00;100908.91;10406581;28;20049;-81
2023/09/17 07:05:36;;;;;;;8.70;4.72;;;;;;;15.42;100.00;100894.63;10406259;28;20037;-81
2023/09/17 07:10:37;;;;;;;6.90;4.30;;;;;;;15.41;100.00;100871.56;10405061;28;20041;-82
2023/09/17 07:15:38;;;;;;;6.78;4.18;;;;;;;15.87;100.00;100903.44;10407375;28;20488;-83
2023/09/17 07:20:39;;;;;;;21.67;5.53;;;;;;;16.03;100.00;100907.72;10405908;28;20528;-82
2023/09/17 07:25:39;;;;;;;4.82;4.00;;;;;;;16.11;99.49;100903.06;10410504;28;20033;-81
2023/09/17 07:30:40;;;;;;;5.68;4.43;;;;;;;16.17;99.53;100899.63;10412988;28;20034;-83
2023/09/17 07:35:41;;;;;;;4.63;3.50;;;;;;;16.22;99.11;100876.78;10413774;28;20498;-81
2023/09/17 07:40:42;;;;;;;6.95;3.42;;;;;;;16.30;98.06;100864.06;10413405;28;20033;-81
2023/09/17 07:45:42;;;;;;;5.40;3.03;;;;;;;16.65;96.15;100894.47;10412157;28;20041;-83
2023/09/17 07:50:43;;;;;;;14.95;3.97;;;;;;;16.65;95.59;100834.66;10412256;28;20538;-83
2023/09/17 07:55:44;;;;;;;8.02;3.22;;;;;;;17.38;93.65;100882.56;10412874;28;20041;-81
2023/09/17 08:00:45;;;;;;;5.88;2.88;;;;;;;17.69;91.95;100880.22;10410690;28;20045;-86
2023/09/17 08:05:47;;;;;;;10.95;3.13;;;;;;;17.50;92.14;100895.25;10412747;28;20057;-83
2023/09/17 08:10:49;;;;;;;4.65;3.20;;;;;;;17.06;92.92;100888.41;10411701;28;20040;-82
2023/09/17 08:15:50;;;;;;;5.43;2.95;;;;;;;16.72;93.67;100865.03;10412301;28;20053;-83
2023/09/17 08:20:51;;;;;;;7.10;5.07;;;;;;;16.60;93.09;100843.28;10411665;28;20472;-81
2023/09/17 08:25:52;;;;;;;8.00;3.95;;;;;;;16.81;92.30;100833.53;10412270;28;20065;-83
2023/09/17 08:30:53;;;;;;;5.05;3.25;;;;;;;17.24;90.38;100863.72;10412426;28;20037;-82
2023/09/17 08:35:54;;;;;;;7.43;2.80;;;;;;;18.06;88.59;100872.69;10410470;28;20416;-84
2023/09/17 08:40:58;;;;;;;7.93;3.47;;;;;;;18.34;86.59;100867.16;10410988;28;20037;-83
2023/09/17 08:46:00;;;;;;;;;;;;;;;19.18;85.43;100868.31;10411186;28;20117;-84
2023/09/17 08:51:02;;;;;;;5.82;2.97;;;;;;;19.51;80.97;100867.38;10411586;28;19993;-86
2023/09/17 08:56:06;;;;;;;5.20;3.00;;;;;;;19.25;79.75;100812.56;10411320;28;20400;-82
2023/09/17 09:01:11;;;;;;;6.10;3.45;;;;;;;19.00;79.57;100834.00;10410626;28;20049;-84
2023/09/17 09:06:14;;;;;;;3.30;3.00;;;;;;;18.19;81.51;100802.00;10410010;28;20120;-82
2023/09/17 09:11:16;;;;;;;4.82;3.17;;;;;;;18.26;82.57;100864.66;10410494;28;20041;-82
2023/09/17 09:16:17;;;;;;;8.02;4.80;;;;;;;17.85;82.94;100886.31;10410540;28;20045;-81
2023/09/17 09:21:18;;;;;;;10.18;5.38;;;;;;;17.36;83.83;100880.09;10410626;28;20049;-81
2023/09/17 09:26:20;;;;;;;6.28;5.15;;;;;;;16.78;84.59;100834.78;10410053;28;20034;-80
2023/09/17 09:31:21;;;;;;;9.05;5.57;;;;;;;16.92;85.86;100891.19;10409980;28;20049;-80
2023/09/17 09:36:26;;;;;;;6.95;5.07;;;;;;;16.79;87.02;100884.72;10410101;28;20041;-79
2023/09/17 09:41:29;;;;;;;8.00;5.78;;;;;;;16.89;87.84;100889.72;10409077;28;20034;-79
2023/09/17 09:57:53;;;;;;;7.95;5.57;;;;;;;17.93;84.56;100903.06;11063205;22;20057;-82
2023/09/17 10:02:55;;;;;;;9.25;4.70;;;;;;;17.56;83.67;100829.97;10427385;28;20048;-82
2023/09/17 10:07:56;;;;;;;8.30;4.00;;;;;;;18.10;81.89;100898.16;10422427;28;20048;-80
2023/09/17 10:12:59;;;;;;;9.88;3.83;;;;;;;18.01;80.93;100861.75;10455809;28;20116;-79
2023/09/17 10:18:01;;;;;;;5.65;3.88;;;;;;;18.22;80.39;100864.25;10455040;28;20044;-78
2023/09/17 10:23:04;;;;;;;5.47;3.63;;;;;;;18.35;78.93;100858.03;10455221;28;20124;-79
2023/09/17 10:28:05;;;;;;;7.97;4.10;;;;;;;18.69;78.03;100856.97;10448473;28;20045;-79
2023/09/17 10:33:09;;;;;;;5.50;3.75;;;;;;;18.79;77.17;100807.34;10413792;28;20051;-79
2023/09/17 10:38:10;;;;;;;5.50;3.50;;;;;;;19.08;76.24;100827.53;10413800;28;20059;-79
2023/09/17 10:43:11;;;;;;;5.53;3.40;;;;;;;19.27;75.31;100877.00;10413234;28;20533;-78
2023/09/17 10:48:14;;;;;;;6.35;3.40;;;;;;;19.23;74.47;100855.03;10414380;28;20467;-79
2023/09/17 10:53:14;;;;;;;5.00;3.35;;;;;;;19.34;72.62;100864.31;10412723;28;20081;-79
2023/09/17 10:58:27;;;;;;;10.27;3.47;;;;;;;19.05;71.97;100885.31;10412181;28;20085;-80
2023/09/17 11:03:30;;;;;;;3.97;2.87;;;;;;;18.20;74.92;100825.16;10413270;28;20048;-78
2023/09/17 11:08:31;;;;;;;5.03;2.45;;;;;;;18.27;76.16;100877.06;10412467;28;20069;-81
2023/09/17 11:13:32;;;;;;;4.97;2.10;;;;;;;17.47;77.24;100822.28;10413073;28;20127;-82
2023/09/17 11:18:33;;;;;;;5.07;1.60;;;;;;;17.56;77.71;100907.06;10412035;28;20037;-80
2023/09/17 11:23:46;;;;;;;2.88;1.70;;;;;;;17.30;77.94;100903.22;10412349;28;20045;-79
2023/09/17 11:28:58;;;;;;;9.13;1.67;;;;;;;16.91;78.55;100841.25;10409831;28;20045;-80
2023/09/17 11:33:59;;;;;;;21.67;2.35;;;;;;;16.85;78.67;100843.69;10410018;28;20524;-75
2023/09/17 11:39:04;;;;;;;3.85;1.60;;;;;;;17.25;78.27;100916.38;10411537;28;20128;-77
2023/09/17 11:44:06;;;;;;;2.92;1.67;;;;;;;17.49;77.40;100914.25;10411966;28;20037;-79
2023/09/17 11:49:08;;;;;;;9.13;1.85;;;;;;;17.66;76.68;100904.00;10412240;28;20041;-78
2023/09/17 11:54:15;;;;;;;3.67;1.33;;;;;;;17.94;74.44;100901.22;10412218;28;20033;-79
2023/09/17 11:59:16;;;;;;;5.03;1.40;;;;;;;17.76;73.06;100838.06;10412485;28;20068;-79
2023/09/17 12:04:18;;;;;;;6.40;1.67;;;;;;;18.18;73.21;100897.94;10411527;28;20037;-78
2023/09/17 12:09:31;;;;;;;7.18;1.95;;;;;;;18.34;73.73;100904.00;10410444;28;20516;-78
2023/09/17 12:14:33;;;;;;;3.80;1.23;;;;;;;18.09;74.39;100895.66;10418328;28;20045;-77
2023/09/17 12:19:34;;;;;;;3.60;1.23;;;;;;;18.08;74.40;100892.16;10418977;28;20045;-78
2023/09/17 12:24:37;;;;;;;3.75;1.65;;;;;;;18.02;74.88;100887.59;10416049;28;20417;-80
2023/09/17 12:29:38;;;;;;;2.75;1.60;;;;;;;18.24;74.49;100882.84;10417887;28;20041;-80
2023/09/17 12:34:39;;;;;;;2.92;1.65;;;;;;;17.98;74.25;100832.59;10417472;28;20037;-82
2023/09/17 12:39:43;;;;;;;2.65;1.52;;;;;;;18.07;74.36;100855.56;10417551;28;20048;-76
2023/09/17 12:44:43;;;;;;;;;;;;;;;18.49;73.76;100883.09;10417842;28;20456;-76
2023/09/17 12:49:44;;;;;;;9.90;1.80;;;;;;;18.34;74.70;100877.91;10418213;28;19920;-82
2023/09/17 12:54:45;;;;;;;4.07;1.40;;;;;;;18.26;74.01;100867.34;10417724;28;20048;-79
2023/09/17 12:59:50;;;;;;;5.45;2.05;;;;;;;18.18;73.30;100846.84;10417075;28;20061;-80
2023/09/17 13:04:51;;;;;;;7.82;1.90;;;;;;;17.92;73.89;100798.44;10416620;28;20106;-80
2023/09/17 13:09:58;;;;;;;7.53;1.55;;;;;;;18.02;72.49;100805.06;10417120;28;20059;-80
2023/09/17 13:15:00;;;;;;;2.42;1.33;;;;;;;18.29;72.99;100874.19;10416684;28;20523;-83
2023/09/17 13:20:01;;;;;;;5.43;1.35;;;;;;;18.03;73.06;100857.81;10416685;28;20037;-84
2023/09/17 13:25:02;;;;;;;8.77;1.80;;;;;;;17.98;73.58;100880.97;10415774;28;20041;-86
2023/09/17 13:30:05;;;;;;;3.45;1.77;;;;;;;17.51;73.92;100802.88;10415601;28;20038;-84
2023/09/17 13:35:10;;;;;;;5.28;1.60;;;;;;;18.01;73.28;100878.72;10415428;28;20444;-85
2023/09/17 13:40:11;;;;;;;2.58;1.40;;;;;;;17.63;72.24;100839.91;10415324;28;20051;-83
2023/09/17 13:45:17;;;;;;;1.90;1.23;;;;;;;17.63;72.40;100861.41;10415684;28;20044;-79
2023/09/17 13:50:18;;;;;;;6.60;1.65;;;;;;;17.36;72.21;100830.94;10416252;28;20411;-85
2023/09/17 13:55:19;;;;;;;3.63;1.50;;;;;;;17.46;72.00;100852.88;10415173;28;20044;-80
2023/09/17 14:00:21;;;;;;;8.07;1.90;;;;;;;16.88;72.26;100759.28;10415140;28;20065;-74
2023/09/17 14:05:22;;;;;;;4.82;1.88;;;;;;;17.46;72.59;100861.75;10414568;28;20037;-74
2023/09/17 14:10:23;;;;;;;7.25;2.33;;;;;;;17.28;72.87;100845.34;10413273;28;20049;-74
2023/09/17 14:15:23;;;;;;;15.68;2.90;;;;;;;16.96;72.88;100815.47;10424416;28;20037;-74
2023/09/17 14:20:24;;;;;;;14.23;2.40;;;;;;;16.77;73.52;100822.38;10428559;28;20041;-73
2023/09/17 14:25:25;;;;;;;22.05;3.22;;;;;;;16.31;74.13;100760.38;10413207;28;20037;-72
2023/09/17 14:30:28;;;;;;;13.20;3.00;;;;;;;16.93;74.51;100880.28;10412915;28;20053;-73
2023/09/17 14:35:28;;;;;;;26.52;3.03;;;;;;;16.71;74.93;100859.88;10413026;28;20045;-72
2023/09/17 14:40:29;;;;;;;10.85;2.67;;;;;;;16.74;75.10;100880.94;10413382;28;20147;-72
2023/09/17 14:45:31;;;;;;;29.50;3.85;;;;;;;16.12;75.90;100781.47;10412804;28;20041;-72
2023/09/17 14:50:32;;;;;;;26.65;11.75;;;;;;;16.65;76.93;100880.25;10412035;28;20041;-71
2023/09/17 14:55:32;;;;;;;22.60;8.45;;;;;;;16.57;76.89;100875.00;10412842;28;20529;-72
2023/09/17 15:00:33;;;;;;;53.35;15.40;;;;;;;15.97;77.33;100788.72;10413345;28;20061;-72
2023/09/17 15:05:34;;;;;;;41.72;27.70;;;;;;;16.51;77.98;100892.75;10413056;28;20450;-75
2023/09/17 15:10:35;;;;;;;21.55;13.18;;;;;;;16.36;79.40;100867.81;10412326;28;20394;-76
2023/09/17 15:15:36;;;;;;;47.90;11.48;;;;;;;16.33;80.81;100887.84;10411576;28;20050;-77
2023/09/17 15:20:37;;;;;;;64.93;14.23;;;;;;;15.75;82.33;100820.06;10412669;28;20041;-77
2023/09/17 15:25:38;;;;;;;65.68;12.32;;;;;;;15.66;83.98;100845.28;10411568;28;20045;-77
2023/09/17 15:30:38;;;;;;;27.38;9.68;;;;;;;15.60;85.72;100881.66;10413256;28;20136;-73
2023/09/17 15:35:41;;;;;;;44.72;10.32;;;;;;;15.20;87.16;100864.28;10413122;28;20136;-73
2023/09/17 15:40:41;;;;;;;30.52;10.35;;;;;;;14.76;87.81;100817.78;10411443;28;20052;-73
2023/09/17 15:45:42;;;;;;;17.58;9.27;;;;;;;14.77;88.94;100840.81;10413814;28;20405;-77
2023/09/17 15:50:44;;;;;;;23.05;10.60;;;;;;;14.86;90.08;100887.03;10420239;28;20038;-77
2023/09/17 15:55:44;;;;;;;27.42;9.65;;;;;;;14.79;90.68;100902.16;10419832;28;20046;-73
2023/09/17 16:00:45;;;;;;;19.17;8.90;;;;;;;14.67;91.83;100896.41;10417761;28;20061;-75
2023/09/17 16:05:47;;;;;;;21.80;8.52;;;;;;;14.71;92.86;100915.59;10419624;28;20042;-75
2023/09/17 16:10:48;;;;;;;27.52;8.90;;;;;;;14.42;93.28;100911.81;10418368;28;20495;-75
2023/09/17 16:15:52;;;;;;;21.58;8.50;;;;;;;14.38;94.88;100930.03;10419129;28;20084;-76
2023/09/17 16:20:53;;;;;;;26.20;8.07;;;;;;;14.29;94.45;100935.63;10418913;28;20064;-74
2023/09/17 16:25:53;;;;;;;14.13;8.18;;;;;;;14.30;94.83;100939.97;10418213;28;20501;-75
2023/09/17 16:30:54;;;;;;;13.90;8.05;;;;;;;14.24;95.51;100935.31;10418144;28;20148;-77
2023/09/17 16:35:55;;;;;;;19.33;8.05;;;;;;;14.17;95.68;100929.84;10417877;28;20037;-75
2023/09/17 16:40:59;;;;;;;12.15;7.32;;;;;;;14.24;96.86;100924.63;10418609;28;20080;-71
2023/09/17 16:46:00;;;;;;;11.27;7.60;;;;;;;14.19;96.01;100919.00;10418239;28;20060;-82
2023/09/17 16:51:01;;;;;;;16.02;6.93;;;;;;;14.37;96.43;100939.06;10417788;28;20400;-75
2023/09/17 16:56:02;;;;;;;12.15;7.57;;;;;;;14.41;96.72;100939.53;10416611;28;20624;-75
2023/09/17 17:01:02;;;;;;;14.57;7.57;;;;;;;14.37;97.20;100928.38;10417426;28;20057;-76
2023/09/17 17:06:03;;;;;;;12.18;6.65;;;;;;;14.47;97.79;100943.34;10417489;28;20050;-75
2023/09/17 17:11:04;;;;;;;11.25;7.15;;;;;;;14.15;98.18;100883.81;10417000;28;20037;-75
2023/09/17 17:16:05;;;;;;;10.75;5.43;;;;;;;14.59;98.14;100961.47;10416847;28;20086;-76
2023/09/17 17:21:06;;;;;;;12.77;4.30;;;;;;;14.57;97.58;100936.78;10416657;28;20049;-76
2023/09/17 17:26:06;;;;;;;11.48;4.28;;;;;;;14.78;97.36;100956.69;10420661;28;20534;-75
2023/09/17 17:31:07;;;;;;;5.78;4.07;;;;;;;14.36;97.05;100885.81;10415005;28;20045;-74
2023/09/17 17:36:09;;;;;;;9.02;4.72;;;;;;;14.84;97.16;100950.59;10415410;28;20420;-75
2023/09/17 17:41:09;;;;;;;6.85;4.35;;;;;;;14.90;97.37;100946.34;10415372;28;20045;-75
2023/09/17 17:46:10;;;;;;;6.38;4.50;;;;;;;14.66;96.96;100901.94;10415281;28;20140;-75
2023/09/17 17:51:12;;;;;;;22.98;5.53;;;;;;;15.01;97.55;100957.44;10414549;28;20559;-75
2023/09/17 17:56:13;;;;;;;9.90;4.80;;;;;;;14.33;97.76;100848.75;10413853;28;20041;-74
2023/09/17 18:01:14;;;;;;;6.68;4.80;;;;;;;14.88;98.40;100949.22;10415491;28;20409;-75
2023/09/17 18:06:15;;;;;;;12.13;5.68;;;;;;;15.01;97.63;100967.31;10414451;28;20444;-77
2023/09/17 18:11:16;;;;;;;9.50;5.28;;;;;;;14.97;97.63;100945.44;10414098;28;20045;-74
2023/09/17 18:16:17;;;;;;;12.68;6.65;;;;;;;15.04;97.86;100958.94;10413983;28;20068;-75
2023/09/17 18:21:17;;;;;;;14.57;8.43;;;;;;;15.05;97.86;100961.44;10414150;28;20848;-75
2023/09/17 18:26:18;;;;;;;13.02;7.28;;;;;;;15.03;97.63;100942.03;10413591;28;20091;-75
2023/09/17 18:31:19;;;;;;;17.33;7.93;;;;;;;15.02;97.69;100944.91;10412340;28;20037;-75
2023/09/17 18:36:20;;;;;;;12.65;6.80;;;;;;;15.18;97.22;100951.94;10413689;28;20091;-75
2023/09/17 18:41:21;;;;;;;9.73;7.20;;;;;;;15.19;97.39;100943.72;10413133;28;20053;-75
2023/09/17 18:46:21;;;;;;;10.30;6.63;;;;;;;14.94;97.33;100902.19;10413674;28;20436;-75
2023/09/17 18:51:22;;;;;;;9.73;6.90;;;;;;;15.24;97.32;100948.53;10414075;28;20511;-75
2023/09/17 18:56:23;;;;;;;7.97;6.45;;;;;;;15.24;97.06;100954.72;10413031;28;20037;-75
2023/09/17 19:01:24;;;;;;;14.65;6.82;;;;;;;15.11;97.47;100949.16;10412578;28;20140;-75
2023/09/17 19:06:24;;;;;;;14.10;7.10;;;;;;;15.09;97.62;100953.03;10412415;28;20041;-75
2023/09/17 19:11:25;;;;;;;10.80;7.07;;;;;;;14.95;97.74;100930.59;10413003;28;20044;-75
2023/09/17 19:16:29;;;;;;;11.65;7.43;;;;;;;14.57;98.19;100887.84;10413570;28;20403;-75
2023/09/17 19:21:30;;;;;;;10.17;6.70;;;;;;;14.44;98.42;100887.56;10417838;28;20512;-75
2023/09/17 19:26:30;;;;;;;15.30;7.78;;;;;;;14.63;99.13;100953.97;10421167;28;20081;-75
2023/09/17 19:31:31;;;;;;;11.57;6.97;;;;;;;14.46;99.65;100945.19;10420060;28;20045;-75
2023/09/17 19:36:33;;;;;;;16.30;8.00;;;;;;;14.28;99.99;100945.50;10420318;28;20042;-75
2023/09/17 19:41:34;;;;;;;11.95;6.72;;;;;;;14.12;99.97;100937.59;10419968;28;20409;-75
2023/09/17 19:46:35;;;;;;;22.55;7.95;;;;;;;14.07;100.00;100926.59;10420107;28;20040;-75
2023/09/17 19:51:36;;;;;;;13.48;8.13;;;;;;;14.11;100.00;100946.59;10419663;28;20132;-75
2023/09/17 19:56:36;;;;;;;19.83;12.38;;;;;;;14.20;100.00;100956.22;10419688;28;20048;-75
2023/09/17 20:01:37;;;;;;;27.13;13.23;;;;;;;14.24;100.00;100949.53;10420140;28;20053;-75
2023/09/17 20:06:38;;;;;;;19.85;12.70;;;;;;;14.29;100.00;100962.34;10418886;28;20044;-75
2023/09/17 20:11:39;;;;;;;23.65;12.48;;;;;;;13.84;100.00;100892.66;10419911;28;20037;-75
2023/09/17 20:16:40;;;;;;;20.33;10.65;;;;;;;13.81;100.00;100868.97;10419890;28;20401;-75
2023/09/17 20:21:40;;;;;;;17.38;11.10;;;;;;;14.11;100.00;100936.72;10418909;28;20041;-75
2023/09/17 20:26:44;;;;;;;20.35;9.30;;;;;;;13.59;100.00;100859.94;10418835;28;20041;-75
2023/09/17 20:31:51;;;;;;;15.70;9.90;;;;;;;13.93;100.00;100933.50;10418426;28;20060;-75
2023/09/17 20:36:52;;;;;;;15.82;10.75;;;;;;;13.61;100.00;100887.28;10418471;28;20468;-75
2023/09/17 20:41:53;;;;;;;20.75;11.48;;;;;;;13.91;100.00;100935.53;10417942;28;20140;-75
2023/09/17 20:46:54;;;;;;;16.80;10.60;;;;;;;13.80;100.00;100920.72;10417507;28;20038;-75
2023/09/17 20:51:56;;;;;;;16.20;11.55;;;;;;;13.85;100.00;100930.88;10417442;28;20052;-75
2023/09/17 20:56:59;;;;;;;17.90;11.15;;;;;;;13.57;100.00;100901.16;10416958;28;20045;-75
2023/09/17 21:02:00;;;;;;;22.55;10.73;;;;;;;13.59;100.00;100896.47;10418368;28;20156;-75
2023/09/17 21:07:00;;;;;;;21.77;13.68;;;;;;;13.50;100.00;100868.16;10415886;28;20144;-75
2023/09/17 21:12:02;;;;;;;25.85;14.23;;;;;;;13.80;100.00;100917.22;10417521;28;20029;-75
2023/09/17 21:17:03;;;;;;;24.48;13.95;;;;;;;13.81;100.00;100919.72;10416301;28;20624;-75
2023/09/17 21:22:04;;;;;;;33.10;13.27;;;;;;;13.33;100.00;100854.88;10416317;28;20037;-75
2023/09/17 21:27:05;;;;;;;14.45;9.45;;;;;;;13.73;100.00;100924.25;10416685;28;20057;-74
2023/09/17 21:32:06;;;;;;;13.75;9.32;;;;;;;13.79;100.00;100921.75;10416104;28;20045;-75
2023/09/17 21:37:06;;;;;;;24.65;10.98;;;;;;;13.79;100.00;100920.88;10414714;28;20084;-75
2023/09/17 21:42:07;;;;;;;15.00;9.80;;;;;;;13.77;100.00;100929.09;10415518;28;20072;-75
2023/09/17 21:47:08;;;;;;;22.35;9.20;;;;;;;13.75;100.00;100927.59;10415278;28;20180;-75
2023/09/17 21:52:09;;;;;;;13.73;8.02;;;;;;;13.66;100.00;100919.63;10415524;28;20041;-75
2023/09/17 21:57:18;;;;;;;15.77;8.50;;;;;;;13.70;100.00;100931.63;10415682;28;20053;-75
2023/09/17 22:02:19;;;;;;;12.55;7.97;;;;;;;13.69;100.00;100921.94;10415443;28;20064;-75
2023/09/17 22:07:20;;;;;;;11.75;7.85;;;;;;;13.36;100.00;100857.19;10415025;28;20072;-75
2023/09/17 22:12:20;;;;;;;12.07;8.32;;;;;;;13.39;100.00;100856.03;10414575;28;20051;-75
2023/09/17 22:17:21;;;;;;;14.70;8.63;;;;;;;13.64;100.00;100908.31;10414336;28;20402;-75
2023/09/17 22:22:22;;;;;;;9.82;7.88;;;;;;;13.71;100.00;100913.78;10413865;28;20065;-75
2023/09/17 22:27:23;;;;;;;11.30;8.40;;;;;;;13.72;100.00;100912.75;10414301;28;20060;-76
2023/09/17 22:32:24;;;;;;;10.40;8.40;;;;;;;13.69;100.00;100921.13;10414829;28;20444;-75
2023/09/17 22:37:25;;;;;;;13.75;8.30;;;;;;;13.38;100.00;100865.88;10413060;28;20041;-75
2023/09/17 22:42:26;;;;;;;14.02;9.10;;;;;;;13.65;100.00;100909.97;10413833;28;20131;-75
2023/09/17 22:47:26;;;;;;;13.23;9.15;;;;;;;13.67;100.00;100897.28;10413019;28;20045;-75
2023/09/17 22:52:27;;;;;;;16.30;8.95;;;;;;;13.67;100.00;100888.41;10413887;28;20091;-76
2023/09/17 22:57:28;;;;;;;12.38;8.52;;;;;;;13.70;100.00;100896.94;10413444;28;20389;-75
2023/09/17 23:02:29;;;;;;;12.77;8.52;;;;;;;13.43;100.00;100858.19;10413721;28;20072;-75